Time;durP1;ratioP1;P1;durP2;ratioP2;P2;SDS_P1;SDS_P2;PMS_P1;PMS_P2;Temp;Humidity;BMP_temperature;BMP_pressure;BME280_temperature;BME280_humidity;BME280_pressure;Samples;Min_cycle;Max_cycle;Signal;HPM_P1;HPM_P2
2023/08/18 00:00:45;;;;;;;14.10;12.70;;;;;;;22.14;70.19;100708.21;108408;1284;22167;-82
2023/08/18 00:03:39;;;;;;;12.40;11.30;;;;;;;22.13;69.98;100710.43;108514;1284;22003;-82
2023/08/18 00:06:56;;;;;;;;;;;;;;;;;;;;;
2023/08/18 00:10:00;;;;;;;;;;;;;;;;;;;;;
2023/08/18 00:13:16;;;;;;;16.40;12.20;;;;;;;21.73;70.29;100770.06;108752;1284;22604;-80
2023/08/18 00:15:57;;;;;;;13.90;12.10;;;;;;;21.65;70.44;100764.52;108521;1279;22005;-81
2023/08/18 00:18:52;;;;;;;13.20;11.90;;;;;;;21.64;70.46;100758.77;108919;1279;21999;-81
2023/08/18 00:21:40;;;;;;;13.60;11.30;;;;;;;21.66;70.66;100757.90;108830;1281;22010;-81
2023/08/18 00:24:41;;;;;;;13.90;11.50;;;;;;;21.69;70.57;100759.80;108564;1286;22000;-82
2023/08/18 00:27:54;;;;;;;;;;;;;;;;;;;;;
2023/08/18 00:31:00;;;;;;;16.80;11.80;;;;;;;21.76;70.19;100762.75;108811;1280;21990;-82
2023/08/18 00:34:20;;;;;;;12.50;11.20;;;;;;;21.84;69.83;100753.33;109143;1273;21982;-82
2023/08/18 00:42:08;;;;;;;13.00;10.50;;;;;;;21.93;69.08;100753.31;108460;1288;22009;-82
2023/08/18 00:44:50;;;;;;;13.10;10.40;;;;;;;21.96;68.74;100747.07;108639;1285;23691;-81
2023/08/18 00:47:49;;;;;;;11.80;9.50;;;;;;;22.02;68.36;100740.36;108641;1285;22800;-83
2023/08/18 00:50:39;;;;;;;12.50;9.50;;;;;;;22.08;67.91;100739.36;108604;1285;21994;-82
2023/08/18 00:53:19;;;;;;;10.90;9.50;;;;;;;22.12;67.80;100734.96;108609;1284;22144;-83
2023/08/18 00:56:06;;;;;;;10.00;8.50;;;;;;;22.14;67.45;100733.59;108835;1271;23064;-83
2023/08/18 00:59:05;;;;;;;;;;;;;;;;;;;;;
2023/08/18 01:02:05;;;;;;;;;;;;;;;;;;;;;
2023/08/18 01:05:43;;;;;;;10.70;9.10;;;;;;;22.08;66.70;100728.70;109795;1270;23850;-83
2023/08/18 01:08:37;;;;;;;18.40;9.60;;;;;;;22.05;66.62;100720.27;109351;1274;23634;-83
2023/08/18 01:12:17;;;;;;;13.20;10.60;;;;;;;22.02;66.51;100713.21;109499;1261;22032;-82
2023/08/18 01:15:33;;;;;;;11.40;9.60;;;;;;;22.00;66.62;100706.49;109161;1276;21991;-84
2023/08/18 01:19:03;;;;;;;13.10;11.20;;;;;;;21.93;66.60;100693.80;108927;1279;22358;-83
2023/08/18 01:21:53;;;;;;;;;;;;;;;21.88;66.62;100686.73;108727;1283;22061;-83
2023/08/18 01:25:03;;;;;;;9.80;8.70;;;;;;;21.88;66.78;100682.27;108847;1283;22017;-82
2023/08/18 01:28:06;;;;;;;12.20;9.40;;;;;;;21.85;66.74;100690.52;108965;1281;23722;-83
2023/08/18 01:31:40;;;;;;;11.10;10.00;;;;;;;21.82;66.96;100696.25;108585;1285;22006;-84
2023/08/18 01:34:43;;;;;;;11.80;9.40;;;;;;;21.77;67.01;100697.98;108657;1284;23241;-83
2023/08/18 01:38:10;;;;;;;10.00;8.80;;;;;;;21.76;66.97;100693.86;108510;1284;23084;-84
2023/08/18 01:41:12;;;;;;;;;;;;;;;;;;;;;
2023/08/18 01:44:19;;;;;;;10.30;8.10;;;;;;;21.74;66.86;100696.11;108905;1281;21784;-84
2023/08/18 01:47:33;;;;;;;10.70;9.70;;;;;;;21.74;66.80;100695.33;108923;1281;21999;-82
2023/08/18 01:50:26;;;;;;;12.60;9.20;;;;;;;21.68;66.87;100693.77;109878;1269;23056;-81
2023/08/18 01:53:34;;;;;;;11.50;8.80;;;;;;;21.66;67.03;100700.54;109689;1269;22003;-82
2023/08/18 01:56:51;;;;;;;13.80;10.00;;;;;;;21.60;67.19;100706.30;110030;1269;21949;-83
2023/08/18 02:00:19;;;;;;;11.00;8.30;;;;;;;21.60;67.19;100703.30;109783;1269;22173;-82
2023/08/18 02:03:26;;;;;;;10.60;8.60;;;;;;;21.48;67.55;100702.41;108761;1284;22001;-82
2023/08/18 02:07:03;;;;;;;12.00;8.60;;;;;;;21.42;67.62;100709.79;108611;1284;23713;-82
2023/08/18 02:10:18;;;;;;;;;;;;;;;;;;;;;
2023/08/18 02:13:20;;;;;;;8.70;7.80;;;;;;;21.37;68.08;100718.52;108891;1283;23734;-84
2023/08/18 02:16:12;;;;;;;9.40;8.30;;;;;;;21.38;68.18;100720.02;108819;1283;22024;-84
2023/08/18 02:19:13;;;;;;;10.40;9.50;;;;;;;21.40;68.07;100721.29;108705;1283;23007;-85
2023/08/18 02:22:17;;;;;;;11.20;9.10;;;;;;;21.37;67.96;100721.49;109197;1275;22000;-83
2023/08/18 02:25:15;;;;;;;11.80;9.60;;;;;;;21.33;68.04;100712.44;109320;1275;22046;-82
2023/08/18 02:28:54;;;;;;;;;;;;;;;;;;;;;
2023/08/18 02:32:45;;;;;;;9.60;8.70;;;;;;;21.28;68.40;100708.35;109504;1273;21988;-83
2023/08/18 02:35:52;;;;;;;12.00;10.20;;;;;;;21.24;68.61;100708.30;108658;1284;22399;-81
2023/08/18 02:38:56;;;;;;;11.70;10.50;;;;;;;21.23;68.65;100702.72;108820;1284;22843;-83
2023/08/18 02:42:00;;;;;;;11.20;9.50;;;;;;;21.23;68.74;100693.16;109065;1279;22004;-84
2023/08/18 02:45:44;;;;;;;;;;;;;;;;;;;;;
2023/08/18 02:48:48;;;;;;;;;;;;;;;;;;;;;
2023/08/18 02:53:03;;;;;;;11.70;9.90;;;;;;;21.14;69.14;100684.17;108695;1285;23698;-82
2023/08/18 02:55:30;;;;;;;9.60;8.80;;;;;;;21.10;69.23;100681.30;108963;1278;23780;-84
2023/08/18 02:58:22;;;;;;;13.10;11.50;;;;;;;21.06;69.32;100684.79;108588;1286;23055;-83
2023/08/18 03:01:36;;;;;;;;;;;;;;;;;;;;;
2023/08/18 03:05:03;;;;;;;14.40;8.30;;;;;;;21.02;69.53;100673.59;108837;1283;22272;-82
2023/08/18 03:08:36;;;;;;;10.70;9.80;;;;;;;21.00;69.71;100679.58;108458;1287;22016;-82
2023/08/18 03:11:19;;;;;;;12.70;11.50;;;;;;;20.97;69.61;100684.74;108516;1287;21981;-84
2023/08/18 03:14:21;;;;;;;12.60;11.50;;;;;;;20.96;69.61;100679.36;108653;1283;22033;-82
2023/08/18 03:17:09;;;;;;;13.40;12.10;;;;;;;20.93;69.85;100679.73;108616;1277;23778;-82
2023/08/18 03:19:47;;;;;;;12.90;11.30;;;;;;;20.91;69.89;100674.07;108574;1283;22465;-82
2023/08/18 03:22:24;;;;;;;22.10;12.00;;;;;;;20.90;69.87;100674.85;108762;1280;22052;-81
2023/08/18 03:25:22;;;;;;;13.70;10.60;;;;;;;20.90;69.92;100678.73;108994;1276;21950;-85
2023/08/18 03:28:06;;;;;;;10.40;9.40;;;;;;;20.88;69.78;100679.94;108972;1279;21998;-84
2023/08/18 03:31:08;;;;;;;;;;;;;;;20.87;69.85;100684.77;109038;1279;21994;-85
2023/08/18 03:34:12;;;;;;;10.70;9.80;;;;;;;20.71;69.94;100682.46;109128;1279;21726;-85
2023/08/18 03:37:22;;;;;;;33.40;30.40;;;;;;;20.72;69.84;100679.00;109968;1271;23027;-83
2023/08/18 03:40:36;;;;;;;14.90;11.10;;;;;;;20.73;69.81;100671.19;109681;1275;21974;-84
2023/08/18 03:43:19;;;;;;;11.60;10.50;;;;;;;20.73;69.77;100672.39;109545;1275;23061;-82
2023/08/18 03:46:25;;;;;;;17.20;9.60;;;;;;;20.75;69.77;100677.56;109378;1276;23241;-84
2023/08/18 03:49:56;;;;;;;16.40;10.00;;;;;;;20.73;69.83;100676.69;109429;1276;22028;-82
2023/08/18 03:52:50;;;;;;;15.60;13.20;;;;;;;20.74;69.90;100675.90;108855;1281;22023;-82
2023/08/18 03:55:33;;;;;;;14.20;12.20;;;;;;;20.75;69.72;100676.29;108473;1288;22757;-83
2023/08/18 03:58:19;;;;;;;13.00;11.20;;;;;;;20.76;69.40;100674.45;108384;1288;23020;-82
2023/08/18 04:01:14;;;;;;;12.20;11.00;;;;;;;20.77;69.33;100682.90;108502;1287;24434;-82
2023/08/18 04:04:31;;;;;;;14.70;13.20;;;;;;;20.69;69.23;100673.98;108659;1281;23701;-82
2023/08/18 04:07:24;;;;;;;;;;;;;;;;;;;;;
2023/08/18 04:10:41;;;;;;;;;;;;;;;;;;;;;
2023/08/18 04:14:09;;;;;;;18.90;15.60;;;;;;;20.60;69.42;100694.54;109166;1275;22082;-82
2023/08/18 04:17:47;;;;;;;;;;;;;;;;;;;;;
2023/08/18 04:21:17;;;;;;;18.00;15.50;;;;;;;20.58;69.49;100719.32;109721;1271;22004;-85
2023/08/18 04:24:45;;;;;;;14.90;13.30;;;;;;;20.57;69.43;100730.48;109723;1269;22008;-80
2023/08/18 04:27:26;;;;;;;22.50;20.50;;;;;;;20.57;69.34;100732.12;109681;1264;22006;-83
2023/08/18 04:30:30;;;;;;;25.40;23.10;;;;;;;20.53;69.28;100726.22;110307;1264;21976;-82
2023/08/18 04:34:03;;;;;;;;;;;;;;;;;;;;;
2023/08/18 04:36:59;;;;;;;18.00;16.30;;;;;;;20.46;69.57;100750.55;110685;1264;22437;-82
2023/08/18 04:40:28;;;;;;;15.30;13.80;;;;;;;20.47;69.54;100762.49;111001;1257;22972;-82
2023/08/18 04:43:12;;;;;;;16.70;14.40;;;;;;;20.44;69.62;100765.01;111410;1248;21924;-82
2023/08/18 04:46:00;;;;;;;;;;;;;;;;;;;;;
2023/08/18 04:48:47;;;;;;;16.70;14.90;;;;;;;20.49;69.91;100774.21;111138;1257;22955;-81
2023/08/18 04:52:14;;;;;;;16.80;14.80;;;;;;;20.49;69.93;100770.68;110792;1262;21978;-83
2023/08/18 04:55:12;;;;;;;19.20;14.80;;;;;;;20.49;70.00;100763.78;110872;1262;24304;-81
2023/08/18 04:58:26;;;;;;;;;;;;;;;;;;;;;
2023/08/18 05:01:21;;;;;;;18.70;15.40;;;;;;;20.60;70.44;100758.58;110358;1267;21976;-81
2023/08/18 05:03:57;;;;;;;17.80;15.60;;;;;;;20.71;70.54;100756.54;109458;1272;21959;-81
2023/08/18 05:07:24;;;;;;;19.20;16.10;;;;;;;20.81;70.61;100756.66;109569;1276;22452;-83
2023/08/18 05:10:58;;;;;;;16.90;15.30;;;;;;;21.13;69.99;100743.70;108185;1290;544566;-81
2023/08/18 05:13:56;;;;;;;18.50;15.50;;;;;;;21.17;69.84;100738.09;110957;1261;23692;-79
2023/08/18 05:17:07;;;;;;;19.10;15.60;;;;;;;21.23;69.68;100738.14;111338;1257;21965;-83
2023/08/18 05:19:48;;;;;;;19.90;15.80;;;;;;;21.27;69.45;100738.91;111289;1257;23042;-82
2023/08/18 05:22:48;;;;;;;16.50;14.90;;;;;;;21.36;69.45;100743.20;110682;1260;22261;-82
2023/08/18 05:25:56;;;;;;;19.20;16.90;;;;;;;21.38;68.93;100743.34;109767;1264;21996;-82
2023/08/18 05:28:49;;;;;;;18.70;16.90;;;;;;;21.37;68.97;100737.95;110568;1264;21985;-84
2023/08/18 05:32:04;;;;;;;19.30;17.30;;;;;;;21.42;68.91;100739.01;110138;1269;23106;-81
2023/08/18 05:35:10;;;;;;;21.10;18.60;;;;;;;21.49;68.75;100739.92;109791;1269;23036;-81
2023/08/18 05:38:16;;;;;;;21.80;19.40;;;;;;;21.51;68.48;100742.07;110007;1269;21973;-83
2023/08/18 05:41:33;;;;;;;19.30;17.50;;;;;;;21.53;68.34;100740.47;110127;1263;22049;-83
2023/08/18 05:44:57;;;;;;;22.50;18.10;;;;;;;21.53;68.29;100731.33;111178;1259;22032;-80
2023/08/18 05:48:48;;;;;;;14.10;13.00;;;;;;;21.51;68.12;100727.40;110210;1269;22006;-80
2023/08/18 05:52:27;;;;;;;13.80;12.30;;;;;;;21.40;68.08;100727.27;108929;1284;23016;-81
2023/08/18 05:55:23;;;;;;;13.40;12.10;;;;;;;21.37;68.23;100721.30;108383;1284;23054;-80
2023/08/18 05:58:13;;;;;;;14.90;12.50;;;;;;;21.40;68.29;100724.66;108733;1284;24336;-80
2023/08/18 06:01:03;;;;;;;12.90;11.00;;;;;;;21.38;68.36;100724.05;108742;1284;21988;-79
2023/08/18 06:03:34;;;;;;;13.50;11.10;;;;;;;21.38;68.37;100724.05;108761;1284;22776;-81
2023/08/18 06:06:22;;;;;;;11.90;10.90;;;;;;;21.35;68.47;100723.98;108721;1279;21982;-79
2023/08/18 06:09:22;;;;;;;15.40;12.20;;;;;;;21.32;68.73;100720.80;109063;1279;21989;-79
2023/08/18 06:12:34;;;;;;;11.80;10.70;;;;;;;21.30;68.88;100718.67;109025;1275;21985;-81
2023/08/18 06:15:52;;;;;;;13.10;11.90;;;;;;;21.26;68.98;100714.71;109212;1271;22972;-80
2023/08/18 06:18:48;;;;;;;14.30;12.80;;;;;;;21.27;69.32;100706.20;109623;1271;21978;-79
2023/08/18 06:21:27;;;;;;;12.60;11.40;;;;;;;21.33;69.50;100711.94;109601;1271;21999;-79
2023/08/18 06:24:23;;;;;;;14.60;13.10;;;;;;;21.40;69.65;100712.59;110759;1260;23736;-82
2023/08/18 06:27:15;;;;;;;13.00;11.70;;;;;;;21.51;69.83;100718.46;110885;1258;22893;-80
2023/08/18 06:30:11;;;;;;;15.50;11.70;;;;;;;21.58;69.49;100720.83;111494;1255;21976;-79
2023/08/18 06:33:01;;;;;;;13.50;12.10;;;;;;;21.60;69.27;100721.20;111024;1251;22809;-81
2023/08/18 06:35:45;;;;;;;12.90;11.70;;;;;;;21.62;69.17;100721.39;111009;1255;23744;-78
2023/08/18 06:38:35;;;;;;;14.20;12.90;;;;;;;21.65;69.31;100718.48;111217;1255;23043;-78
2023/08/18 06:44:59;;;;;;;13.40;12.10;;;;;;;21.80;69.60;100719.58;111100;1255;21963;-84
2023/08/18 06:48:57;;;;;;;13.40;12.20;;;;;;;21.92;69.73;100720.25;110336;1264;23608;-81
2023/08/18 06:52:40;;;;;;;12.10;10.90;;;;;;;22.04;69.65;100726.17;109814;1269;22809;-82
2023/08/18 06:56:03;;;;;;;;;;;;;;;22.12;69.32;100730.48;109215;1278;21989;-79
2023/08/18 06:59:34;;;;;;;15.70;10.40;;;;;;;22.13;69.44;100732.72;109020;1278;21993;-80
2023/08/18 07:03:13;;;;;;;;;;;;;;;;;;;;;
2023/08/18 07:06:52;;;;;;;18.20;13.00;;;;;;;22.18;69.05;100739.93;108838;1284;23152;-80
2023/08/18 07:10:09;;;;;;;13.60;12.20;;;;;;;22.25;69.33;100739.80;108885;1281;22093;-80
2023/08/18 07:13:52;;;;;;;;;;;;;;;;;;;;;
2023/08/18 07:17:31;;;;;;;11.30;10.30;;;;;;;22.53;69.70;100739.29;108574;1284;22983;-78
2023/08/18 07:20:43;;;;;;;21.40;14.60;;;;;;;22.81;69.82;100736.98;108936;1264;23893;-80
2023/08/18 07:23:29;;;;;;;12.40;11.10;;;;;;;23.12;69.46;100733.73;109163;1274;22011;-78
2023/08/18 07:26:58;;;;;;;;;;;;;;;;;;;;;
2023/08/18 07:30:06;;;;;;;11.60;10.50;;;;;;;23.44;67.48;100728.53;109224;1277;23001;-81
2023/08/18 07:33:27;;;;;;;12.90;9.50;;;;;;;23.52;66.69;100733.11;109257;1272;23075;-77
2023/08/18 07:36:40;;;;;;;;;;;;;;;;;;;;;
2023/08/18 07:40:23;;;;;;;11.10;9.90;;;;;;;23.45;66.48;100730.36;109416;1273;22879;-78
2023/08/18 07:43:48;;;;;;;10.80;9.30;;;;;;;23.42;66.38;100732.73;109423;1270;24325;-78
2023/08/18 07:47:22;;;;;;;11.40;9.50;;;;;;;23.39;66.22;100733.73;109347;1270;21992;-77
2023/08/18 07:50:34;;;;;;;11.80;9.30;;;;;;;23.35;66.17;100733.87;109298;1275;21978;-77
2023/08/18 07:54:06;;;;;;;13.30;9.20;;;;;;;23.36;66.29;100731.80;108766;1279;22134;-78
2023/08/18 07:57:49;;;;;;;12.90;9.80;;;;;;;23.46;66.71;100736.14;108550;1284;21984;-79
2023/08/18 08:01:17;;;;;;;10.00;9.00;;;;;;;23.61;66.58;100730.75;108769;1280;23737;-78
2023/08/18 08:04:17;;;;;;;10.50;9.20;;;;;;;23.77;66.44;100734.52;108541;1283;22101;-78
2023/08/18 08:08:20;;;;;;;;;;;;;;;;;;;;;
2023/08/18 08:11:28;;;;;;;11.70;8.60;;;;;;;23.95;64.96;100741.52;108590;1285;22066;-79
2023/08/18 08:15:09;;;;;;;;;;;;;;;;;;;;;
2023/08/18 08:18:15;;;;;;;12.80;10.10;;;;;;;24.01;64.65;100750.40;108583;1281;22019;-77
2023/08/18 08:22:17;;;;;;;11.00;10.00;;;;;;;24.00;64.38;100750.64;108701;1281;21988;-78
2023/08/18 08:25:05;;;;;;;9.70;8.70;;;;;;;24.04;64.50;100757.06;108671;1276;23052;-77
2023/08/18 08:28:51;;;;;;;9.60;8.70;;;;;;;24.07;64.41;100765.02;108809;1279;21987;-78
2023/08/18 08:32:44;;;;;;;10.40;9.50;;;;;;;23.98;64.01;100773.20;109198;1273;22629;-77
2023/08/18 08:36:12;;;;;;;10.80;9.50;;;;;;;23.97;64.32;100777.19;109702;1268;22727;-81
2023/08/18 08:39:08;;;;;;;11.90;9.50;;;;;;;24.05;64.37;100776.55;109548;1268;22163;-79
2023/08/18 08:42:17;;;;;;;10.80;9.70;;;;;;;24.13;64.41;100775.77;109793;1268;23059;-81
2023/08/18 08:45:45;;;;;;;10.20;9.40;;;;;;;24.17;64.13;100775.31;109978;1269;22460;-79
2023/08/18 08:48:52;;;;;;;13.50;10.80;;;;;;;24.21;64.12;100775.87;109586;1269;21985;-79
2023/08/18 08:52:18;;;;;;;11.70;9.80;;;;;;;24.14;63.84;100772.52;109861;1264;22979;-79
2023/08/18 08:55:10;;;;;;;9.40;8.50;;;;;;;24.07;64.13;100765.84;110354;1263;21986;-79
2023/08/18 08:58:29;;;;;;;9.60;8.70;;;;;;;24.11;64.36;100764.13;110063;1264;22060;-79
2023/08/18 09:01:57;;;;;;;10.90;9.70;;;;;;;24.14;64.25;100760.50;109843;1268;23327;-78
2023/08/18 09:05:28;;;;;;;18.20;9.70;;;;;;;24.13;64.22;100764.96;110096;1268;21991;-83
2023/08/18 09:08:35;;;;;;;10.40;9.20;;;;;;;24.18;64.20;100766.73;110097;1268;21965;-80
2023/08/18 09:12:14;;;;;;;9.80;9.00;;;;;;;24.22;64.26;100762.48;110004;1269;22031;-82
2023/08/18 09:15:51;;;;;;;9.70;8.80;;;;;;;24.20;64.03;100757.77;109687;1273;22764;-86
2023/08/18 09:19:24;;;;;;;;;;;;;;;;;;;;;
2023/08/18 09:22:56;;;;;;;10.30;8.00;;;;;;;24.07;64.13;100745.95;108926;1280;22346;-79
2023/08/18 09:27:10;;;;;;;8.90;8.10;;;;;;;23.97;64.36;100742.77;108900;1280;21989;-81
2023/08/18 09:30:45;;;;;;;7.90;7.30;;;;;;;23.92;64.28;100741.39;108367;1288;22876;-80
2023/08/18 09:34:03;;;;;;;9.00;8.30;;;;;;;23.83;64.30;100732.07;108418;1288;23660;-80
2023/08/18 09:38:36;;;;;;;;;;;;;;;;;;;;;
2023/08/18 09:43:21;;;;;;;8.50;7.60;;;;;;;23.85;64.04;100730.16;108663;1283;23654;-79
2023/08/18 09:46:27;;;;;;;14.90;13.80;;;;;;;23.77;64.39;100736.27;107950;1294;21984;-84
2023/08/18 09:49:14;;;;;;;10.10;9.30;;;;;;;23.85;64.71;100740.09;108192;1287;22484;-80
2023/08/18 09:52:17;;;;;;;7.90;7.30;;;;;;;23.95;64.44;100736.02;108696;1284;22026;-83
2023/08/18 09:55:20;;;;;;;7.90;7.20;;;;;;;23.95;63.62;100730.98;108866;1284;22050;-83
2023/08/18 09:58:36;;;;;;;9.10;8.40;;;;;;;24.00;63.82;100725.07;108820;1283;23008;-86
2023/08/18 10:01:56;;;;;;;8.60;7.80;;;;;;;24.11;63.90;100722.16;108990;1283;22107;-84
2023/08/18 10:05:00;;;;;;;;;;;;;;;;;;;;;
2023/08/18 10:08:17;;;;;;;14.50;9.30;;;;;;;24.98;64.84;100716.25;109539;1274;21985;-83
2023/08/18 10:11:27;;;;;;;8.10;7.20;;;;;;;25.62;63.13;100713.98;108960;1279;22016;-82
2023/08/18 10:14:45;;;;;;;7.40;6.40;;;;;;;26.13;61.25;100711.39;109121;1277;22466;-86
2023/08/18 10:17:33;;;;;;;9.30;6.70;;;;;;;26.63;59.79;100713.29;108853;1284;21991;-83
2023/08/18 10:20:11;;;;;;;17.40;7.20;;;;;;;27.00;58.14;100718.14;109046;1283;22025;-83
2023/08/18 10:22:44;;;;;;;8.50;6.80;;;;;;;27.18;55.97;100727.70;109130;1274;22041;-84
2023/08/18 10:25:38;;;;;;;11.80;6.90;;;;;;;27.13;54.90;100733.96;109357;1274;21767;-85
2023/08/18 10:28:57;;;;;;;8.70;7.00;;;;;;;27.00;54.81;100746.17;109443;1274;21984;-85
2023/08/18 10:31:38;;;;;;;11.00;6.90;;;;;;;26.77;54.47;100750.95;109455;1274;21999;-84
2023/08/18 10:34:38;;;;;;;9.70;7.30;;;;;;;26.61;54.73;100750.24;109372;1274;22007;-85
2023/08/18 10:37:54;;;;;;;9.90;7.20;;;;;;;26.39;55.24;100759.01;109212;1276;24314;-84
2023/08/18 10:41:00;;;;;;;10.80;7.60;;;;;;;26.11;55.92;100754.08;109365;1273;21985;-85
2023/08/18 10:43:58;;;;;;;8.60;7.80;;;;;;;25.99;56.29;100753.21;109616;1269;24981;-85
2023/08/18 10:46:39;;;;;;;8.20;6.30;;;;;;;25.89;55.79;100753.30;109710;1265;21973;-85
2023/08/18 10:49:46;;;;;;;10.60;7.00;;;;;;;25.76;55.96;100751.98;110385;1265;21994;-83
2023/08/18 10:52:35;;;;;;;9.20;7.30;;;;;;;25.71;56.26;100752.35;110356;1265;22449;-84
2023/08/18 10:55:25;;;;;;;8.90;7.10;;;;;;;25.77;56.52;100754.98;110492;1265;21974;-83
2023/08/18 10:58:00;;;;;;;8.10;7.40;;;;;;;25.85;56.37;100756.88;109433;1272;22998;-82
2023/08/18 11:00:49;;;;;;;9.00;7.90;;;;;;;25.87;56.16;100753.46;109305;1278;23309;-84
2023/08/18 11:03:49;;;;;;;23.20;8.90;;;;;;;25.93;56.21;100755.95;109262;1277;22003;-81
2023/08/18 11:06:41;;;;;;;10.30;7.90;;;;;;;26.01;56.19;100757.67;109206;1278;22024;-83
2023/08/18 11:09:46;;;;;;;14.80;8.10;;;;;;;26.00;56.05;100758.67;108836;1281;24322;-82
2023/08/18 11:14:17;;;;;;;12.80;10.60;;;;;;;26.15;56.47;100770.30;108369;1282;22001;-81
2023/08/18 11:22:55;;;;;;;;;;;;;;;;;;;;;
2023/08/18 11:26:37;;;;;;;9.30;8.40;;;;;;;26.39;56.36;100775.23;108353;1292;23734;-81
2023/08/18 11:29:41;;;;;;;8.60;7.80;;;;;;;26.61;56.06;100783.83;107689;1297;22018;-84
2023/08/18 11:33:31;;;;;;;;;;;;;;;;;;;;;
2023/08/18 11:47:55;;;;;;;7.90;6.60;;;;;;;27.93;50.64;100779.98;110596;1261;549729;-81
2023/08/18 11:51:55;;;;;;;;;;;;;;;;;;;;;
2023/08/18 11:55:44;;;;;;;6.50;5.90;;;;;;;27.62;51.37;100755.16;111813;1251;23657;-79
2023/08/18 11:59:46;;;;;;;9.20;8.30;;;;;;;27.36;52.05;100746.63;111176;1255;22895;-80
2023/08/18 12:03:57;;;;;;;;;;;;;;;;;;;;;
2023/08/18 12:08:08;;;;;;;13.10;7.20;;;;;;;27.36;52.43;100731.63;111590;1250;21965;-79
2023/08/18 12:12:27;;;;;;;;;;;;;;;;;;;;;
2023/08/18 12:15:59;;;;;;;5.80;5.30;;;;;;;27.35;50.86;100708.92;110852;1258;23645;-80
2023/08/18 12:19:53;;;;;;;5.50;5.00;;;;;;;27.31;50.91;100704.69;110555;1263;23117;-78
2023/08/18 12:23:10;;;;;;;5.20;4.70;;;;;;;27.36;50.64;100697.48;109975;1269;22845;-79
2023/08/18 12:26:52;;;;;;;8.80;5.10;;;;;;;27.43;50.41;100692.14;109263;1273;23690;-80
2023/08/18 12:34:37;;;;;;;7.20;6.50;;;;;;;27.51;50.35;100674.54;108752;1273;22846;-79
2023/08/18 12:37:27;;;;;;;;;;;;;;;;;;;;;
2023/08/18 12:40:32;;;;;;;;;;;;;;;27.53;50.54;100666.79;109237;1275;21976;-79
2023/08/18 12:44:08;;;;;;;6.40;5.80;;;;;;;27.57;51.47;100659.61;109234;1276;22466;-80
2023/08/18 12:47:32;;;;;;;5.70;5.00;;;;;;;27.67;51.07;100658.52;108871;1281;22230;-79
2023/08/18 12:50:47;;;;;;;6.30;5.80;;;;;;;27.67;50.57;100654.98;108793;1284;22002;-79
2023/08/18 12:54:34;;;;;;;6.30;5.80;;;;;;;27.67;50.54;100654.23;108972;1278;22006;-79
2023/08/18 12:57:54;;;;;;;;;;;;;;;;;;;;;
2023/08/18 13:04:00;;;;;;;6.50;5.90;;;;;;;27.69;51.20;100651.52;109149;1273;22441;-79
2023/08/18 13:06:56;;;;;;;;;;;;;;;;;;;;;
2023/08/18 13:11:04;;;;;;;;;;;;;;;;;;;;;
2023/08/18 13:14:10;;;;;;;9.60;6.10;;;;;;;27.70;50.92;100664.09;110273;1268;22349;-81
2023/08/18 13:17:44;;;;;;;9.40;6.20;;;;;;;27.65;50.48;100665.02;109474;1274;22035;-78
2023/08/18 13:20:48;;;;;;;5.60;5.10;;;;;;;27.59;50.26;100667.70;109026;1272;22010;-80
2023/08/18 13:23:27;;;;;;;7.20;5.30;;;;;;;27.52;50.31;100666.77;109351;1272;22003;-80
2023/08/18 13:26:14;;;;;;;15.20;6.20;;;;;;;27.52;50.17;100668.74;109394;1272;22157;-79
2023/08/18 13:29:21;;;;;;;;;;;;;;;;;;;;;
2023/08/18 13:33:13;;;;;;;;;;;;;;;;;;;;;
2023/08/18 13:37:40;;;;;;;;;;;;;;;;;;;;;
2023/08/18 13:41:01;;;;;;;8.60;6.30;;;;;;;27.37;51.43;100663.69;109612;1269;22004;-79
2023/08/18 13:44:25;;;;;;;6.20;5.60;;;;;;;27.44;51.64;100668.24;109538;1272;22106;-80
2023/08/18 13:48:14;;;;;;;8.10;7.40;;;;;;;27.44;51.19;100677.02;109567;1271;21993;-79
2023/08/18 13:51:14;;;;;;;;;;;;;;;;;;;;;
2023/08/18 13:54:49;;;;;;;9.90;6.40;;;;;;;27.26;51.28;100671.02;110430;1264;22048;-80
2023/08/18 13:58:03;;;;;;;8.60;6.30;;;;;;;27.30;51.68;100677.08;111374;1253;22014;-79
2023/08/18 14:06:36;;;;;;;6.10;5.50;;;;;;;27.16;51.39;100685.84;110429;1266;22097;-80
2023/08/18 14:09:51;;;;;;;;;;;;;;;;;;;;;
2023/08/18 14:13:36;;;;;;;;;;;;;;;;;;;;;
2023/08/18 14:17:02;;;;;;;;;;;;;;;;;;;;;
2023/08/18 14:20:13;;;;;;;6.90;5.30;;;;;;;26.96;51.73;100710.02;110814;1259;22506;-80
2023/08/18 14:23:12;;;;;;;6.50;5.80;;;;;;;26.85;51.44;100706.98;110450;1262;21989;-79
2023/08/18 14:26:07;;;;;;;6.10;5.60;;;;;;;26.78;51.53;100705.33;110447;1262;21985;-80
2023/08/18 14:29:08;;;;;;;8.00;5.70;;;;;;;26.74;52.06;100705.90;110364;1262;22811;-78
2023/08/18 14:35:47;;;;;;;7.10;5.20;;;;;;;26.54;52.48;100704.92;110905;1255;21961;-78
2023/08/18 14:39:06;;;;;;;;;;;;;;;;;;;;;
2023/08/18 14:42:11;;;;;;;;;;;;;;;;;;;;;
2023/08/18 14:45:29;;;;;;;4.20;3.60;;;;;;;26.38;51.36;100706.66;111748;1248;23020;-80
2023/08/18 14:48:57;;;;;;;;;;;;;;;;;;;;;
2023/08/18 14:52:48;;;;;;;5.50;4.50;;;;;;;26.25;51.35;100696.86;111962;1248;21958;-79
2023/08/18 14:56:43;;;;;;;5.60;3.80;;;;;;;26.22;51.45;100694.35;111633;1248;22981;-78
2023/08/18 15:00:05;;;;;;;4.40;3.70;;;;;;;26.19;51.27;100691.52;110915;1259;22221;-78
2023/08/18 15:03:48;;;;;;;5.00;3.70;;;;;;;26.13;50.97;100682.32;110657;1259;21969;-78
2023/08/18 15:07:23;;;;;;;7.80;4.20;;;;;;;26.13;51.02;100676.13;109859;1268;22044;-79
2023/08/18 15:11:40;;;;;;;6.90;4.70;;;;;;;26.16;50.87;100668.34;110542;1262;22642;-78
2023/08/18 15:15:22;;;;;;;;;;;;;;;;;;;;;
2023/08/18 15:19:25;;;;;;;6.90;4.80;;;;;;;26.25;50.94;100657.60;110395;1263;22896;-79
2023/08/18 15:22:42;;;;;;;5.70;5.10;;;;;;;26.29;51.11;100654.48;109671;1269;22481;-78
2023/08/18 15:30:33;;;;;;;;;;;;;;;;;;;;;
2023/08/18 15:34:24;;;;;;;5.90;4.80;;;;;;;26.38;51.23;100651.52;110627;1261;21978;-80
2023/08/18 15:38:12;;;;;;;7.40;4.20;;;;;;;26.35;51.12;100650.05;110050;1265;23027;-79
2023/08/18 15:42:04;;;;;;;5.00;4.60;;;;;;;26.28;51.28;100659.08;110518;1263;23036;-78
2023/08/18 15:49:50;;;;;;;7.10;3.90;;;;;;;26.15;52.13;100664.71;109260;1275;23619;-78
2023/08/18 15:52:59;;;;;;;5.30;4.10;;;;;;;26.05;52.47;100661.73;108807;1279;22010;-79
2023/08/18 15:59:42;;;;;;;11.00;4.40;;;;;;;25.84;53.19;100662.17;108668;1281;22105;-79
2023/08/18 16:02:48;;;;;;;8.70;3.70;;;;;;;25.83;53.33;100661.39;108679;1279;24556;-79
2023/08/18 16:05:54;;;;;;;4.80;4.40;;;;;;;25.73;53.64;100665.33;108608;1282;23055;-78
2023/08/18 16:09:31;;;;;;;5.20;4.70;;;;;;;25.64;53.86;100661.05;108693;1279;22002;-78
2023/08/18 16:12:11;;;;;;;5.10;4.60;;;;;;;25.62;54.26;100661.23;108546;1283;23082;-78
2023/08/18 16:15:38;;;;;;;7.90;5.20;;;;;;;25.83;54.16;100660.98;107816;1293;544501;-80
2023/08/18 16:23:40;;;;;;;8.30;4.80;;;;;;;25.67;54.84;100660.17;110625;1263;23058;-78
2023/08/18 16:26:58;;;;;;;8.10;5.20;;;;;;;25.61;55.05;100663.34;110023;1270;21979;-77
2023/08/18 16:30:30;;;;;;;5.60;4.80;;;;;;;25.63;55.24;100665.41;107932;1267;2745856;-78
2023/08/18 16:33:16;;;;;;;6.20;5.60;;;;;;;25.63;55.34;100665.23;109497;1273;21988;-78
2023/08/18 16:41:07;;;;;;;;;;;;;;;25.60;55.71;100664.30;108904;1279;21977;-78
2023/08/18 16:45:05;;;;;;;4.90;4.20;;;;;;;25.46;56.19;100657.63;109334;1274;23631;-79
2023/08/18 16:48:23;;;;;;;8.90;5.40;;;;;;;25.45;56.33;100655.42;108378;1287;22033;-79
2023/08/18 16:51:46;;;;;;;;;;;;;;;;;;;;;
2023/08/18 16:55:10;;;;;;;;;;;;;;;;;;;;;
2023/08/18 16:58:45;;;;;;;;;;;;;;;;;;;;;
2023/08/18 17:01:30;;;;;;;12.30;6.00;;;;;;;25.46;56.55;100657.98;107787;1293;22376;-79
2023/08/18 17:04:19;;;;;;;;;;;;;;;;;;;;;
2023/08/18 17:07:18;;;;;;;;;;;;;;;;;;;;;
2023/08/18 17:10:01;;;;;;;6.40;4.80;;;;;;;25.43;56.62;100657.70;108414;1284;21992;-79
2023/08/18 17:12:49;;;;;;;5.20;4.70;;;;;;;25.40;56.83;100662.98;108557;1281;23077;-79
2023/08/18 17:16:25;;;;;;;;;;;;;;;;;;;;;
2023/08/18 17:19:57;;;;;;;11.80;5.40;;;;;;;25.31;57.09;100666.86;108922;1281;21989;-79